createdAt,value
2018-11-14T00:00:17.041Z,5.83
2018-11-14T00:02:48.821Z,6.30
2018-11-14T00:05:23.095Z,6.03
2018-11-14T00:07:55.251Z,6.67
2018-11-14T00:10:34.895Z,5.60
2018-11-14T00:13:13.888Z,5.87
2018-11-14T00:15:48.748Z,6.20
2018-11-14T00:18:20.746Z,7.23
2018-11-14T00:20:52.736Z,6.57
2018-11-14T00:23:24.417Z,5.90
2018-11-14T00:25:56.285Z,6.50
2018-11-14T00:28:35.813Z,6.20
2018-11-14T00:31:08.315Z,6.23
2018-11-14T00:33:40.204Z,6.90
2018-11-14T00:36:14.598Z,6.90
2018-11-14T00:38:46.529Z,6.43
2018-11-14T00:41:22.124Z,6.90
2018-11-14T00:43:53.345Z,7.43
2018-11-14T00:46:25.855Z,7.40
2018-11-14T00:48:57.954Z,7.63
2018-11-14T00:51:30.385Z,7.23
2018-11-14T00:54:07.515Z,7.73
2018-11-14T00:56:42.130Z,7.40
2018-11-14T00:59:14.198Z,7.53
2018-11-14T01:01:47.025Z,7.40
2018-11-14T01:04:18.648Z,7.53
2018-11-14T01:06:50.978Z,7.13
2018-11-14T01:09:23.156Z,7.50
2018-11-14T01:12:01.313Z,7.53
2018-11-14T01:14:32.693Z,7.67
2018-11-14T01:17:04.524Z,8.03
2018-11-14T01:19:36.923Z,8.40
2018-11-14T01:22:11.260Z,7.60
2018-11-14T01:24:43.132Z,7.87
2018-11-14T01:27:13.500Z,8.37
2018-11-14T01:29:51.751Z,8.30
2018-11-14T01:32:29.085Z,8.27
2018-11-14T01:35:02.237Z,7.93
2018-11-14T01:37:33.825Z,7.97
2018-11-14T01:40:06.977Z,8.40
2018-11-14T01:42:39.236Z,7.60
2018-11-14T01:45:12.174Z,8.47
2018-11-14T01:47:45.455Z,8.03
2018-11-14T01:50:17.754Z,7.73
2018-11-14T01:52:57.498Z,7.80
2018-11-14T01:55:29.078Z,7.90
2018-11-14T01:58:09.235Z,8.00
2018-11-14T02:00:41.024Z,7.63
2018-11-14T02:03:12.595Z,8.10
2018-11-14T02:05:49.428Z,8.27
2018-11-14T02:08:21.623Z,7.40
2018-11-14T02:10:53.405Z,7.70
2018-11-14T02:13:25.619Z,8.23
2018-11-14T02:15:57.439Z,8.30
2018-11-14T02:18:29.859Z,8.10
2018-11-14T02:21:01.601Z,8.10
2018-11-14T02:23:34.178Z,8.13
2018-11-14T02:26:06.689Z,7.77
2018-11-14T02:28:42.125Z,8.40
2018-11-14T02:31:13.746Z,8.37
2018-11-14T02:33:45.606Z,7.93
2018-11-14T02:36:17.987Z,8.03
2018-11-14T02:38:49.726Z,7.47
2018-11-14T02:41:22.055Z,8.00
2018-11-14T02:43:53.453Z,7.73
2018-11-14T02:46:25.299Z,8.23
2018-11-14T02:48:57.630Z,7.17
2018-11-14T02:51:30.165Z,7.70
2018-11-14T02:54:02.416Z,7.63
2018-11-14T02:56:34.180Z,7.90
2018-11-14T02:59:06.216Z,7.60
2018-11-14T03:01:37.596Z,7.30
2018-11-14T03:04:09.236Z,6.97
2018-11-14T03:06:40.736Z,6.13
2018-11-14T03:09:13.578Z,7.50
2018-11-14T03:11:53.251Z,6.83
2018-11-14T03:14:24.421Z,6.90
2018-11-14T03:16:56.280Z,6.90
2018-11-14T03:19:27.852Z,7.03
2018-11-14T03:21:59.383Z,6.97
2018-11-14T03:24:31.782Z,7.20
2018-11-14T03:27:03.772Z,7.37
2018-11-14T03:29:35.735Z,7.57
2018-11-14T03:32:07.332Z,8.10
2018-11-14T03:34:38.892Z,7.77
2018-11-14T03:37:10.560Z,8.07
2018-11-14T03:39:42.551Z,8.00
2018-11-14T03:42:14.692Z,8.13
2018-11-14T03:44:46.240Z,7.27
2018-11-14T03:47:17.391Z,7.40
2018-11-14T03:49:56.515Z,7.30
2018-11-14T03:52:28.115Z,7.00
2018-11-14T03:55:00.535Z,6.33
2018-11-14T03:57:32.024Z,7.33
2018-11-14T04:00:04.036Z,6.90
2018-11-14T04:02:36.505Z,6.57
2018-11-14T04:05:09.024Z,6.73
2018-11-14T04:07:41.854Z,7.03
2018-11-14T04:10:14.696Z,7.17
2018-11-14T04:12:49.434Z,6.70
2018-11-14T04:15:20.936Z,7.10
2018-11-14T04:17:52.628Z,7.17
2018-11-14T04:20:24.717Z,7.63
2018-11-14T04:22:56.125Z,7.07
2018-11-14T04:25:28.796Z,8.20
2018-11-14T04:28:00.117Z,8.23
2018-11-14T04:30:31.849Z,8.20
2018-11-14T04:33:11.436Z,8.70
2018-11-14T04:35:43.268Z,8.30
2018-11-14T04:38:14.978Z,7.67
2018-11-14T04:40:46.889Z,7.83
2018-11-14T04:43:18.436Z,7.70
2018-11-14T04:45:50.727Z,7.60
2018-11-14T04:48:22.408Z,8.00
2018-11-14T04:50:54.708Z,7.10
2018-11-14T04:53:27.258Z,7.67
2018-11-14T04:55:58.837Z,7.70
2018-11-14T04:58:32.448Z,7.87
2018-11-14T05:01:04.238Z,8.27
2018-11-14T05:03:35.977Z,7.67
2018-11-14T05:06:07.647Z,8.00
2018-11-14T05:08:39.117Z,7.37
2018-11-14T05:11:11.048Z,7.37
2018-11-14T05:13:43.551Z,8.03
2018-11-14T05:16:15.088Z,7.90
2018-11-14T05:18:47.588Z,7.53
2018-11-14T05:21:21.346Z,7.93
2018-11-14T05:23:53.198Z,7.67
2018-11-14T05:26:25.307Z,7.87
2018-11-14T05:28:58.337Z,7.80
2018-11-14T05:31:33.168Z,8.13
2018-11-14T05:34:05.307Z,8.10
2018-11-14T05:36:37.096Z,7.83
2018-11-14T05:39:12.568Z,7.87
2018-11-14T05:41:45.578Z,8.03
2018-11-14T05:44:17.097Z,8.60
2018-11-14T05:46:48.917Z,7.97
2018-11-14T05:49:20.468Z,8.40
2018-11-14T05:51:53.128Z,7.60
2018-11-14T05:54:26.098Z,7.13
2018-11-14T05:57:06.019Z,6.47
2018-11-14T05:59:36.348Z,6.90
2018-11-14T06:02:14.368Z,6.50
2018-11-14T06:04:49.349Z,7.30
2018-11-14T06:07:20.685Z,6.37
2018-11-14T06:09:57.924Z,6.90
2018-11-14T06:12:32.738Z,7.27
2018-11-14T06:15:04.486Z,7.17
2018-11-14T06:17:36.249Z,6.90
2018-11-14T06:20:12.010Z,7.13
2018-11-14T06:22:44.109Z,7.37
2018-11-14T06:25:23.559Z,7.73
2018-11-14T06:27:55.728Z,7.77
2018-11-14T06:30:27.198Z,7.50
2018-11-14T06:32:59.362Z,8.10
2018-11-14T06:35:39.076Z,7.00
2018-11-14T06:38:10.187Z,7.23
2018-11-14T06:40:41.613Z,7.30
2018-11-14T06:43:13.078Z,7.40
2018-11-14T06:45:44.499Z,7.80
2018-11-14T06:48:15.776Z,7.33
2018-11-14T06:50:48.025Z,7.67
2018-11-14T06:53:22.395Z,8.00
2018-11-14T06:55:54.046Z,7.20
2018-11-14T06:58:25.455Z,7.30
2018-11-14T07:00:56.776Z,7.93
2018-11-14T07:03:36.568Z,7.70
2018-11-14T07:06:07.869Z,6.30
2018-11-14T07:08:39.078Z,6.67
2018-11-14T07:11:11.842Z,7.07
2018-11-14T07:13:42.597Z,6.87
2018-11-14T07:16:12.898Z,6.43
2018-11-14T07:18:44.977Z,7.17
2018-11-14T07:21:17.817Z,6.70
2018-11-14T07:23:51.213Z,6.70
2018-11-14T07:26:22.267Z,6.30
2018-11-14T07:28:54.302Z,5.83
2018-11-14T07:31:28.017Z,6.50
2018-11-14T07:33:58.488Z,5.77
2018-11-14T07:36:31.032Z,6.07
2018-11-14T07:39:03.748Z,6.70
2018-11-14T07:41:36.358Z,6.23
2018-11-14T07:44:09.013Z,6.30
2018-11-14T07:46:48.469Z,7.07
2018-11-14T07:49:20.068Z,6.30
2018-11-14T07:51:51.848Z,7.10
2018-11-14T07:54:24.370Z,7.00
2018-11-14T07:56:56.076Z,7.00
2018-11-14T07:59:28.508Z,6.40
2018-11-14T08:01:59.677Z,6.60
2018-11-14T08:04:37.038Z,6.83
2018-11-14T08:07:07.509Z,6.10
2018-11-14T08:09:51.348Z,6.13
2018-11-14T08:12:23.600Z,5.80
2018-11-14T08:14:55.147Z,6.03
2018-11-14T08:17:34.094Z,6.20
2018-11-14T08:20:11.188Z,6.23
2018-11-14T08:22:50.876Z,6.33
2018-11-14T08:28:53.261Z,5.80
2018-11-14T08:44:28.577Z,7.37
2018-11-14T08:46:59.382Z,6.93
2018-11-14T08:49:34.278Z,8.43
2018-11-14T08:52:04.998Z,7.80
2018-11-14T08:54:35.568Z,7.47
2018-11-14T08:57:06.620Z,7.50
2018-11-14T08:59:37.217Z,7.70
2018-11-14T09:02:09.313Z,7.93
2018-11-14T09:04:40.438Z,7.83
2018-11-14T09:07:20.217Z,8.27
2018-11-14T09:09:59.726Z,7.83
2018-11-14T09:12:39.489Z,7.67
2018-11-14T09:15:23.152Z,7.57
2018-11-14T09:18:02.685Z,8.00
2018-11-14T09:20:42.145Z,7.90
2018-11-14T09:23:19.323Z,8.20
2018-11-14T09:25:58.985Z,7.63
2018-11-14T09:28:38.822Z,7.20
2018-11-14T09:31:12.204Z,6.93
2018-11-14T09:33:45.491Z,7.07
2018-11-14T09:36:21.290Z,7.63
2018-11-14T09:38:55.967Z,7.20
2018-11-14T09:41:28.149Z,7.80
2018-11-14T09:44:00.765Z,7.67
2018-11-14T09:46:35.847Z,7.67
2018-11-14T09:49:10.104Z,8.00
2018-11-14T09:51:42.325Z,7.80
2018-11-14T09:54:17.085Z,8.70
2018-11-14T09:56:49.918Z,8.87
2018-11-14T09:59:22.025Z,8.33
2018-11-14T10:01:54.284Z,9.13
2018-11-14T10:04:29.105Z,9.57
2018-11-14T10:07:01.130Z,9.37
2018-11-14T10:09:33.359Z,9.77
2018-11-14T10:12:06.716Z,9.50
2018-11-14T10:14:38.569Z,9.73
2018-11-14T10:17:11.366Z,10.03
2018-11-14T10:19:43.654Z,9.40
2018-11-14T10:22:15.385Z,10.13
2018-11-14T10:24:47.987Z,9.53
2018-11-14T10:27:21.425Z,9.63
2018-11-14T10:29:53.935Z,9.87
2018-11-14T10:32:34.273Z,9.80
2018-11-14T10:35:06.892Z,9.93
2018-11-14T10:37:39.464Z,10.57
2018-11-14T10:40:14.163Z,10.60
2018-11-14T10:42:47.919Z,9.83
2018-11-14T10:45:22.252Z,10.67
2018-11-14T10:47:54.470Z,10.60
2018-11-14T10:50:31.144Z,9.10
2018-11-14T10:53:06.003Z,10.37
2018-11-14T10:55:40.203Z,9.40
2018-11-14T10:58:13.816Z,9.70
2018-11-14T11:00:53.141Z,10.80
2018-11-14T11:03:30.696Z,10.53
2018-11-14T11:06:08.652Z,11.07
2018-11-14T11:08:47.513Z,10.87
2018-11-14T11:11:24.793Z,10.43
2018-11-14T11:14:06.670Z,11.83
2018-11-14T11:16:43.714Z,11.47
2018-11-14T11:19:22.824Z,11.87
2018-11-14T11:21:57.014Z,12.57
2018-11-14T11:24:29.613Z,12.37
2018-11-14T11:27:01.273Z,12.60
2018-11-14T11:29:33.892Z,12.93
2018-11-14T11:32:06.854Z,13.20
2018-11-14T11:34:46.794Z,14.50
2018-11-14T11:37:20.475Z,14.40
2018-11-14T11:39:57.984Z,13.87
2018-11-14T11:42:34.308Z,15.07
2018-11-14T11:45:10.196Z,14.70
2018-11-14T11:47:42.225Z,14.40
2018-11-14T11:50:15.685Z,14.03
2018-11-14T11:52:51.323Z,14.50
2018-11-14T11:55:27.754Z,13.87
2018-11-14T11:58:00.643Z,14.20
2018-11-14T12:00:32.589Z,14.80
2018-11-14T12:03:04.202Z,15.13
2018-11-14T12:05:36.275Z,15.20
2018-11-14T12:08:08.662Z,14.37
2018-11-14T12:10:40.720Z,16.20
2018-11-14T12:13:12.827Z,14.37
2018-11-14T12:15:46.323Z,15.43
2018-11-14T12:18:18.723Z,16.17
2018-11-14T12:20:53.587Z,16.17
2018-11-14T12:23:29.604Z,15.87
2018-11-14T12:26:08.803Z,17.33
2018-11-14T12:28:40.251Z,17.60
2018-11-14T12:31:12.135Z,17.20
2018-11-14T12:33:43.851Z,17.47
2018-11-14T12:36:17.392Z,16.67
2018-11-14T12:38:57.743Z,18.13
2018-11-14T12:41:34.174Z,17.20
2018-11-14T12:44:08.381Z,16.70
2018-11-14T12:46:41.409Z,17.30
2018-11-14T12:49:14.220Z,17.93
2018-11-14T12:51:47.109Z,17.67
2018-11-14T12:54:18.780Z,17.60
2018-11-14T12:56:53.420Z,16.97
2018-11-14T12:59:29.894Z,18.37
2018-11-14T13:02:02.704Z,18.37
2018-11-14T13:04:35.494Z,19.00
2018-11-14T13:07:07.875Z,18.30
2018-11-14T13:09:40.414Z,17.50
2018-11-14T13:12:12.315Z,18.30
2018-11-14T13:14:43.914Z,17.77
2018-11-14T13:17:15.663Z,17.40
2018-11-14T13:19:49.900Z,17.03
2018-11-14T13:22:22.342Z,16.87
2018-11-14T13:24:54.651Z,17.30
2018-11-14T13:27:27.241Z,17.30
2018-11-14T13:30:01.203Z,17.73
2018-11-14T13:32:40.684Z,17.10
2018-11-14T13:35:21.644Z,18.00
2018-11-14T13:38:01.372Z,17.27
2018-11-14T13:40:33.233Z,18.30
2018-11-14T13:43:06.390Z,18.63
2018-11-14T13:45:41.181Z,18.63
2018-11-14T13:48:15.879Z,18.23
2018-11-14T13:50:51.247Z,19.67
2018-11-14T13:53:23.950Z,19.37
2018-11-14T13:56:03.671Z,19.57
2018-11-14T13:58:39.488Z,19.03
2018-11-14T14:01:15.511Z,18.97
2018-11-14T14:03:47.295Z,19.87
2018-11-14T14:06:19.033Z,18.37
2018-11-14T14:08:54.155Z,20.43
2018-11-14T14:11:26.715Z,21.60
2018-11-14T14:14:07.640Z,21.53
2018-11-14T14:16:40.670Z,21.10
2018-11-14T14:19:12.330Z,21.40
2018-11-14T14:21:44.040Z,21.20
2018-11-14T14:24:16.832Z,21.73
2018-11-14T14:26:56.461Z,21.23
2018-11-14T14:29:36.153Z,21.53
2018-11-14T14:32:09.142Z,20.37
2018-11-14T14:34:49.296Z,22.57
2018-11-14T14:37:24.647Z,22.33
2018-11-14T14:39:57.587Z,21.73
2018-11-14T14:42:29.396Z,21.53
2018-11-14T14:45:04.910Z,21.83
2018-11-14T14:47:37.082Z,20.77
2018-11-14T14:50:16.316Z,21.20
2018-11-14T14:52:48.426Z,21.07
2018-11-14T14:55:22.965Z,21.17
2018-11-14T14:57:55.415Z,21.10
2018-11-14T15:00:28.727Z,21.23
2018-11-14T15:03:00.526Z,20.73
2018-11-14T15:05:32.716Z,20.67
2018-11-14T15:08:04.544Z,20.20
2018-11-14T15:10:37.425Z,20.60
2018-11-14T15:13:09.106Z,20.63
2018-11-14T15:15:42.260Z,19.73
2018-11-14T15:18:13.756Z,21.03
2018-11-14T15:20:45.565Z,21.73
2018-11-14T15:23:17.336Z,20.60
2018-11-14T15:25:49.738Z,20.17
2018-11-14T15:28:23.745Z,20.37
2018-11-14T15:30:56.515Z,20.33
2018-11-14T15:33:28.946Z,19.50
2018-11-14T15:36:00.820Z,20.27
2018-11-14T15:38:32.686Z,21.67
2018-11-14T15:41:04.665Z,22.23
2018-11-14T15:43:36.305Z,21.50
2018-11-14T15:46:09.086Z,21.17
2018-11-14T15:48:43.205Z,21.10
2018-11-14T15:51:15.365Z,21.13
2018-11-14T15:53:47.294Z,20.80
2018-11-14T15:56:26.930Z,20.93
2018-11-14T15:58:59.652Z,20.73
2018-11-14T16:01:31.658Z,21.43
2018-11-14T16:04:06.455Z,22.00
2018-11-14T16:06:38.298Z,20.30
2018-11-14T16:09:13.436Z,20.97
2018-11-14T16:11:45.966Z,21.47
2018-11-14T16:14:18.895Z,21.23
2018-11-14T16:16:51.175Z,21.37
2018-11-14T16:19:25.045Z,20.03
2018-11-14T16:21:56.596Z,20.87
2018-11-14T16:24:35.666Z,21.00
2018-11-14T16:27:07.943Z,20.73
2018-11-14T16:29:40.184Z,20.93
2018-11-14T16:32:12.115Z,21.13
2018-11-14T16:34:52.803Z,19.73
2018-11-14T16:37:24.812Z,21.10
2018-11-14T16:39:57.522Z,21.07
2018-11-14T16:42:29.342Z,21.97
2018-11-14T16:45:02.202Z,21.70
2018-11-14T16:47:33.962Z,20.63
2018-11-14T16:50:06.106Z,21.60
2018-11-14T16:52:37.673Z,22.00
2018-11-14T16:55:11.332Z,20.97
2018-11-14T16:57:49.947Z,21.63
2018-11-14T17:00:31.499Z,21.20
2018-11-14T17:03:03.158Z,21.07
2018-11-14T17:05:42.493Z,21.67
2018-11-14T17:08:14.982Z,21.20
2018-11-14T17:10:47.393Z,21.40
2018-11-14T17:13:19.141Z,21.43
2018-11-14T17:15:58.711Z,21.37
2018-11-14T17:18:31.159Z,21.13
2018-11-14T17:21:02.931Z,22.53
2018-11-14T17:23:35.200Z,20.53
2018-11-14T17:26:06.816Z,20.53
2018-11-14T17:28:43.192Z,20.77
2018-11-14T17:31:16.402Z,20.53
2018-11-14T17:33:48.812Z,21.40
2018-11-14T17:36:23.316Z,20.73
2018-11-14T17:38:54.821Z,20.77
2018-11-14T17:41:27.491Z,19.73
2018-11-14T17:44:00.762Z,20.13
2018-11-14T17:46:32.213Z,19.57
2018-11-14T17:49:04.412Z,19.97
2018-11-14T17:51:36.105Z,20.67
2018-11-14T17:54:08.074Z,21.80
2018-11-14T17:56:40.023Z,21.43
2018-11-14T17:59:12.513Z,20.63
2018-11-14T18:01:45.674Z,20.97
2018-11-14T18:04:18.785Z,21.73
2018-11-14T18:06:52.063Z,21.53
2018-11-14T18:09:39.552Z,22.17
2018-11-14T18:12:11.533Z,22.00
2018-11-14T18:14:43.693Z,21.30
2018-11-14T18:17:15.672Z,21.73
2018-11-14T18:19:48.192Z,22.40
2018-11-14T18:22:21.034Z,22.07
2018-11-14T18:24:53.522Z,23.30
2018-11-14T18:27:25.663Z,22.27
2018-11-14T18:29:57.469Z,23.27
2018-11-14T18:32:28.962Z,22.80
2018-11-14T18:35:03.703Z,21.10
2018-11-14T18:37:35.413Z,21.37
2018-11-14T18:40:09.094Z,21.53
2018-11-14T18:42:41.333Z,20.70
2018-11-14T18:45:17.918Z,19.10
2018-11-14T18:47:50.006Z,18.23
2018-11-14T18:50:22.583Z,18.80
2018-11-14T18:52:54.664Z,20.07
2018-11-14T18:55:27.212Z,20.77
2018-11-14T18:57:59.735Z,19.20
2018-11-14T19:00:32.743Z,18.40
2018-11-14T19:03:04.933Z,17.27
2018-11-14T19:05:38.275Z,18.00
2018-11-14T19:08:09.276Z,16.87
2018-11-14T19:10:40.985Z,17.47
2018-11-14T19:13:12.166Z,19.73
2018-11-14T19:15:44.545Z,18.17
2018-11-14T19:18:16.035Z,18.40
2018-11-14T19:20:47.265Z,19.13
2018-11-14T19:23:18.465Z,18.80
2018-11-14T19:25:49.286Z,17.90
2018-11-14T19:28:21.055Z,19.43
2018-11-14T19:30:54.586Z,18.60
2018-11-14T19:33:25.418Z,18.77
2018-11-14T19:35:57.527Z,18.30
2018-11-14T19:38:29.785Z,17.40
2018-11-14T19:41:01.165Z,17.70
2018-11-14T19:43:33.188Z,18.00
2018-11-14T19:46:04.774Z,18.37
2018-11-14T19:48:35.825Z,18.20
2018-11-14T19:51:07.465Z,19.73
2018-11-14T19:53:39.058Z,20.03
2018-11-14T19:56:10.588Z,20.23
2018-11-14T19:58:43.265Z,20.50
2018-11-14T20:01:15.146Z,19.87
2018-11-14T20:03:46.708Z,19.83
2018-11-14T20:06:18.086Z,20.43
2018-11-14T20:08:49.316Z,19.03
2018-11-14T20:11:20.579Z,18.67
2018-11-14T20:13:55.995Z,17.10
2018-11-14T20:16:27.276Z,17.47
2018-11-14T20:18:58.607Z,16.80
2018-11-14T20:21:32.036Z,16.40
2018-11-14T20:24:04.097Z,18.50
2018-11-14T20:26:35.035Z,17.10
2018-11-14T20:29:08.485Z,17.73
2018-11-14T20:31:41.761Z,18.00
2018-11-14T20:34:14.646Z,18.60
2018-11-14T20:36:45.553Z,18.30
2018-11-14T20:39:16.799Z,18.70
2018-11-14T20:41:48.288Z,19.07
2018-11-14T20:44:19.297Z,17.93
2018-11-14T20:46:51.295Z,18.67
2018-11-14T20:49:22.347Z,16.97
2018-11-14T20:51:53.515Z,17.70
2018-11-14T20:54:26.167Z,17.77
2018-11-14T20:56:57.096Z,17.57
2018-11-14T20:59:28.947Z,17.47
2018-11-14T21:02:00.337Z,16.53
2018-11-14T21:04:30.989Z,17.17
2018-11-14T21:07:02.696Z,17.00
2018-11-14T21:09:34.454Z,17.10
2018-11-14T21:12:06.242Z,18.50
2018-11-14T21:14:37.617Z,16.73
2018-11-14T21:17:09.357Z,15.63
2018-11-14T21:19:41.154Z,14.73
2018-11-14T21:22:14.606Z,14.63
2018-11-14T21:24:46.004Z,14.73
2018-11-14T21:27:17.885Z,14.07
2018-11-14T21:29:49.742Z,15.37
2018-11-14T21:32:20.516Z,14.77
2018-11-14T21:34:52.675Z,15.60
2018-11-14T21:37:23.756Z,15.03
2018-11-14T21:39:55.035Z,15.97
2018-11-14T21:42:26.855Z,16.13
2018-11-14T21:44:58.025Z,16.53
2018-11-14T21:47:33.664Z,16.60
2018-11-14T21:50:04.835Z,16.93
2018-11-14T21:52:35.596Z,17.27
2018-11-14T21:55:06.588Z,17.80
2018-11-14T21:57:38.025Z,18.37
2018-11-14T22:00:13.235Z,18.03
2018-11-14T22:02:49.538Z,17.90
2018-11-14T22:05:20.584Z,16.67
2018-11-14T22:07:52.165Z,16.70
2018-11-14T22:10:25.637Z,15.50
2018-11-14T22:12:56.467Z,18.37
2018-11-14T22:15:28.814Z,17.60
2018-11-14T22:18:00.685Z,16.20
2018-11-14T22:20:32.916Z,16.97
2018-11-14T22:23:03.568Z,19.20
2018-11-14T22:25:35.136Z,20.17
2018-11-14T22:28:07.063Z,19.23
2018-11-14T22:30:39.285Z,16.07
2018-11-14T22:33:09.928Z,15.83
2018-11-14T22:35:50.325Z,15.83
2018-11-14T22:38:30.084Z,14.50
2018-11-14T22:41:01.284Z,15.47
2018-11-14T22:43:32.234Z,15.43
2018-11-14T22:46:04.834Z,16.30
2018-11-14T22:48:38.654Z,15.17
2018-11-14T22:51:10.603Z,14.67
2018-11-14T22:53:42.084Z,15.33
2018-11-14T22:56:21.632Z,14.90
2018-11-14T22:58:54.739Z,14.67
2018-11-14T23:01:26.367Z,14.43
2018-11-14T23:03:56.430Z,14.23
2018-11-14T23:06:28.468Z,15.40
2018-11-14T23:09:09.393Z,14.07
2018-11-14T23:11:49.274Z,15.47
2018-11-14T23:14:20.830Z,16.23
2018-11-14T23:16:53.221Z,15.10
2018-11-14T23:19:24.221Z,14.53
2018-11-14T23:21:55.274Z,13.67
2018-11-14T23:24:28.045Z,13.93
2018-11-14T23:26:59.674Z,13.80
2018-11-14T23:29:31.235Z,12.73
2018-11-14T23:32:03.058Z,13.40
2018-11-14T23:34:34.845Z,13.33
2018-11-14T23:37:06.256Z,12.73
2018-11-14T23:39:37.815Z,13.00
2018-11-14T23:42:10.324Z,13.30
2018-11-14T23:44:40.801Z,12.57
2018-11-14T23:47:12.342Z,12.53
2018-11-14T23:49:44.132Z,12.63
2018-11-14T23:52:15.862Z,12.43
2018-11-14T23:54:47.022Z,11.93
2018-11-14T23:57:18.402Z,12.90
2018-11-14T23:59:49.552Z,12.93
